Time;durP1;ratioP1;P1;durP2;ratioP2;P2;SDS_P1;SDS_P2;PMS_P1;PMS_P2;Temp;Humidity;BMP_temperature;BMP_pressure;BME280_temperature;BME280_humidity;BME280_pressure;Samples;Min_cycle;Max_cycle;Signal;HPM_P1;HPM_P2
2021/03/04 04:11:11;;;;;;;2.17;0.80;;;-2.20;89.50;;;;;;5052594;28;20053;-64
2021/03/04 04:13:36;;;;;;;1.23;1.00;;;-2.20;89.50;;;;;;5053535;28;20033;-65
2021/03/04 04:16:03;;;;;;;5.90;1.00;;;-2.20;90.00;;;;;;5053605;28;20451;-65
2021/03/04 04:18:29;;;;;;;5.25;1.25;;;-2.20;89.20;;;;;;5053663;28;20104;-64
2021/03/04 04:20:55;;;;;;;2.95;1.10;;;-2.30;89.10;;;;;;5053604;28;20060;-65
2021/03/04 04:23:21;;;;;;;2.83;1.10;;;-2.30;89.50;;;;;;5053348;28;20048;-64
2021/03/04 04:25:51;;;;;;;2.40;1.00;;;-2.30;89.10;;;;;;5053540;28;20027;-65
2021/03/04 04:28:18;;;;;;;4.18;1.00;;;-2.30;88.80;;;;;;5053425;28;20480;-64
2021/03/04 04:30:44;;;;;;;1.77;1.00;;;-2.30;89.00;;;;;;5053520;28;20561;-64
2021/03/04 04:33:11;;;;;;;6.55;1.10;;;-2.40;88.90;;;;;;5053218;28;20029;-64
2021/03/04 04:35:36;;;;;;;1.67;1.00;;;-2.40;88.70;;;;;;5052931;28;20551;-64
2021/03/04 04:38:03;;;;;;;2.03;0.88;;;-2.50;88.70;;;;;;5053397;28;20129;-64
2021/03/04 04:40:28;;;;;;;2.15;0.98;;;-2.40;88.50;;;;;;5053113;28;20055;-65
2021/03/04 04:42:54;;;;;;;1.25;1.00;;;-2.50;88.20;;;;;;5053454;28;20413;-65
2021/03/04 04:45:20;;;;;;;9.13;1.35;;;-2.50;88.30;;;;;;5053081;28;20020;-64
2021/03/04 04:47:46;;;;;;;5.15;1.25;;;-2.50;88.30;;;;;;5052650;28;20021;-64
2021/03/04 04:50:12;;;;;;;1.33;0.88;;;-2.50;88.10;;;;;;5053206;28;20037;-64
2021/03/04 04:52:37;;;;;;;3.50;1.30;;;-2.50;87.80;;;;;;5052531;28;20043;-64
2021/03/04 04:55:04;;;;;;;2.92;1.00;;;-2.40;87.70;;;;;;5052860;28;20469;-65
2021/03/04 04:57:29;;;;;;;3.97;1.00;;;-2.50;87.30;;;;;;5052897;28;20021;-64
2021/03/04 04:59:55;;;;;;;3.72;1.10;;;-2.50;87.40;;;;;;5052809;28;20021;-65
2021/03/04 05:02:21;;;;;;;2.42;1.17;;;-2.50;87.40;;;;;;5052957;28;20384;-65
2021/03/04 05:04:47;;;;;;;5.07;1.02;;;-2.50;87.20;;;;;;5052417;28;20060;-64
2021/03/04 05:07:12;;;;;;;2.65;1.00;;;-2.50;86.80;;;;;;5052503;28;20029;-64
2021/03/04 05:09:38;;;;;;;1.45;1.08;;;-2.40;86.90;;;;;;5052209;28;20145;-64
2021/03/04 05:12:04;;;;;;;2.35;1.02;;;-2.40;86.60;;;;;;5051043;28;20049;-65
2021/03/04 05:14:30;;;;;;;4.20;1.20;;;-2.40;86.40;;;;;;5052669;28;20032;-66
2021/03/04 05:16:56;;;;;;;3.80;1.20;;;-2.40;86.20;;;;;;5052389;28;20025;-66
2021/03/04 05:19:22;;;;;;;3.63;1.50;;;-2.30;85.80;;;;;;5052594;28;20021;-65
2021/03/04 05:21:47;;;;;;;5.93;1.05;;;-2.30;85.70;;;;;;5052111;28;20083;-65
2021/03/04 05:24:13;;;;;;;5.43;1.10;;;-2.30;85.60;;;;;;5052667;28;20021;-65
2021/03/04 05:26:39;;;;;;;2.40;1.00;;;-2.30;85.10;;;;;;5051501;28;20129;-65
2021/03/04 05:29:04;;;;;;;1.50;1.10;;;-2.30;85.00;;;;;;5052213;28;20388;-65
2021/03/04 05:31:31;;;;;;;6.45;1.17;;;-2.30;85.20;;;;;;5052410;28;20139;-65
2021/03/04 05:33:57;;;;;;;2.67;1.02;;;-2.30;84.80;;;;;;5052102;28;20381;-65
2021/03/04 05:36:23;;;;;;;1.30;0.90;;;-2.30;84.90;;;;;;5052063;28;20013;-65
2021/03/04 05:38:49;;;;;;;1.48;0.90;;;-2.30;87.80;;;;;;5051853;28;20104;-65
2021/03/04 05:41:21;;;;;;;4.28;1.20;;;-2.20;88.60;;;;;;5052344;28;20104;-65
2021/03/04 05:43:47;;;;;;;4.95;1.08;;;-2.10;86.80;;;;;;5051921;28;20028;-65
2021/03/04 05:46:14;;;;;;;7.93;1.15;;;-1.70;99.90;;;;;;5051731;28;20044;-65
2021/03/04 05:48:43;;;;;;;9.23;1.40;;;-1.50;92.00;;;;;;5051474;28;20063;-64
2021/03/04 05:51:13;;;;;;;17.88;1.30;;;-1.60;86.80;;;;;;5043189;28;20053;-65
2021/03/04 05:53:50;;;;;;;14.60;1.80;;;-1.80;84.40;;;;;;5041774;28;20017;-65
2021/03/04 05:56:17;;;;;;;8.57;1.90;;;-1.90;84.40;;;;;;5045585;28;20511;-66
2021/03/04 05:58:47;;;;;;;4.03;1.25;;;-2.00;83.20;;;;;;5043543;28;20043;-66
2021/03/04 06:01:13;;;;;;;4.43;2.28;;;-2.00;82.60;;;;;;5041438;28;20033;-65
2021/03/04 06:03:40;;;;;;;3.10;1.02;;;-2.10;82.00;;;;;;5047818;28;20038;-66
2021/03/04 06:06:07;;;;;;;5.68;1.80;;;-2.20;81.70;;;;;;5039549;28;20022;-66
2021/03/04 06:08:36;;;;;;;2.20;1.20;;;-2.30;81.20;;;;;;5040215;28;20068;-66
2021/03/04 06:11:04;;;;;;;13.60;1.40;;;-2.40;81.30;;;;;;5037361;28;20037;-66
2021/03/04 06:13:30;;;;;;;8.38;1.30;;;-2.40;81.80;;;;;;5050834;28;20487;-68
2021/03/04 06:15:56;;;;;;;3.42;1.23;;;-2.40;82.60;;;;;;5050021;28;20028;-66
2021/03/04 06:18:22;;;;;;;5.00;1.20;;;-2.20;90.30;;;;;;5051094;28;20025;-66
2021/03/04 06:20:47;;;;;;;5.72;1.52;;;-1.90;87.30;;;;;;5050259;28;20049;-65
2021/03/04 06:23:13;;;;;;;5.38;1.15;;;-1.70;83.20;;;;;;5051403;28;20036;-70
2021/03/04 06:25:40;;;;;;;3.55;1.25;;;-1.50;81.40;;;;;;5051568;28;20091;-72
2021/03/04 06:28:09;;;;;;;8.73;1.33;;;-1.50;79.70;;;;;;5051089;28;20029;-68
2021/03/04 06:30:42;;;;;;;2.03;1.15;;;-1.40;79.40;;;;;;5038223;28;20037;-69
2021/03/04 06:33:12;;;;;;;3.17;0.90;;;-1.30;79.20;;;;;;5051208;28;20128;-69
2021/03/04 06:35:42;;;;;;;3.40;1.20;;;-1.20;78.20;;;;;;5051095;28;20037;-69
2021/03/04 06:38:34;;;;;;;3.40;1.17;;;-1.10;77.50;;;;;;5054575;28;20032;-69
2021/03/04 06:41:00;;;;;;;2.10;1.00;;;-1.10;76.50;;;;;;5055135;28;20025;-69
2021/03/04 06:43:28;;;;;;;3.60;1.00;;;-1.10;76.50;;;;;;5055217;28;20021;-69
2021/03/04 06:46:07;;;;;;;5.47;1.38;;;-1.00;75.80;;;;;;5055560;28;20029;-69
2021/03/04 06:48:34;;;;;;;1.10;0.90;;;-1.00;75.60;;;;;;5055429;28;20040;-69
2021/03/04 06:51:02;;;;;;;2.65;0.90;;;-0.90;74.50;;;;;;5054966;28;20512;-68
2021/03/04 06:53:29;;;;;;;4.00;1.00;;;-0.80;74.20;;;;;;5054831;28;20021;-67
2021/03/04 06:55:56;;;;;;;7.97;1.38;;;-0.40;97.80;;;;;;5046446;28;20022;-65
2021/03/04 06:58:29;;;;;;;3.08;1.40;;;0.70;98.60;;;;;;5055311;28;20159;-68
2021/03/04 07:01:14;;;;;;;1.33;1.00;;;1.20;77.90;;;;;;5054939;28;20021;-75
2021/03/04 07:03:46;;;;;;;1.13;0.80;;;0.90;72.10;;;;;;5051954;28;20028;-65
2021/03/04 07:06:13;;;;;;;3.35;0.95;;;0.60;70.30;;;;;;5054928;28;20096;-65
2021/03/04 07:08:42;;;;;;;1.67;0.93;;;0.30;70.30;;;;;;5054581;28;20242;-66
2021/03/04 07:11:13;;;;;;;2.13;1.05;;;0.30;70.70;;;;;;5054785;28;20524;-66
2021/03/04 07:13:40;;;;;;;2.80;1.10;;;0.20;69.10;;;;;;5039504;28;20033;-68
2021/03/04 07:16:09;;;;;;;1.20;1.05;;;-0.10;67.20;;;;;;5051212;28;20033;-66
2021/03/04 07:18:53;;;;;;;4.00;1.33;;;0.00;69.10;;;;;;5060031;28;20025;-67
2021/03/04 07:21:21;;;;;;;2.25;1.08;;;0.00;68.20;;;;;;5059877;28;20025;-64
2021/03/04 07:23:47;;;;;;;2.22;1.00;;;-0.10;68.30;;;;;;5049843;28;20044;-64
2021/03/04 07:26:15;;;;;;;1.80;1.10;;;0.10;81.90;;;;;;5051266;28;20074;-66
2021/03/04 07:28:43;;;;;;;3.17;1.00;;;0.00;76.50;;;;;;5053469;28;20044;-67
2021/03/04 07:31:10;;;;;;;1.02;1.00;;;-0.10;69.60;;;;;;5043105;28;20045;-66
2021/03/04 07:33:38;;;;;;;3.95;1.15;;;-0.40;66.50;;;;;;5047578;28;20029;-66
2021/03/04 07:36:10;;;;;;;1.63;0.90;;;-0.60;66.20;;;;;;5053929;28;20418;-66
2021/03/04 07:38:37;;;;;;;2.92;1.00;;;-0.70;67.40;;;;;;5053811;28;20029;-64
2021/03/04 07:41:11;;;;;;;1.92;1.10;;;-0.80;67.50;;;;;;5053783;28;20096;-66
2021/03/04 07:43:54;;;;;;;2.40;1.15;;;-0.90;67.00;;;;;;5047076;28;20037;-67
2021/03/04 07:46:50;;;;;;;3.30;1.05;;;-0.90;65.80;;;;;;5047956;28;20036;-63
2021/03/04 07:49:16;;;;;;;1.50;0.88;;;-0.90;65.90;;;;;;5052651;28;20103;-66
2021/03/04 07:51:48;;;;;;;1.38;0.80;;;-0.90;65.90;;;;;;5053721;28;20025;-66
2021/03/04 07:54:24;;;;;;;4.63;1.23;;;-0.80;65.90;;;;;;5053831;28;20029;-64
2021/03/04 07:57:04;;;;;;;1.35;1.00;;;-0.90;65.00;;;;;;5053510;28;20044;-65
2021/03/04 07:59:30;;;;;;;2.05;1.17;;;-0.80;65.80;;;;;;5051985;28;20420;-68
2021/03/04 08:01:58;;;;;;;1.83;1.13;;;-0.80;65.00;;;;;;5053462;28;20033;-67
2021/03/04 08:04:27;;;;;;;0.88;0.82;;;-0.70;65.60;;;;;;5047996;28;20385;-67
2021/03/04 08:06:55;;;;;;;2.75;1.27;;;-0.70;65.60;;;;;;5051829;28;20025;-67
2021/03/04 08:09:29;;;;;;;1.35;0.88;;;-0.60;65.20;;;;;;5053056;28;20041;-65
2021/03/04 08:12:24;;;;;;;2.20;0.82;;;-0.70;63.30;;;;;;5048129;28;20091;-66
2021/03/04 08:14:57;;;;;;;1.38;1.20;;;-0.70;63.50;;;;;;5046620;28;20041;-65
2021/03/04 08:17:34;;;;;;;2.35;1.25;;;-0.60;62.80;;;;;;5043027;28;20028;-66
2021/03/04 08:20:12;;;;;;;1.67;1.20;;;-0.60;63.40;;;;;;5052896;28;20021;-66
2021/03/04 08:22:47;;;;;;;1.15;1.00;;;-0.60;62.90;;;;;;5052727;28;20029;-65
2021/03/04 08:25:18;;;;;;;2.70;1.15;;;-0.50;62.90;;;;;;5052806;28;20013;-66
2021/03/04 08:27:44;;;;;;;2.50;1.30;;;-0.60;63.80;;;;;;5052807;28;20029;-65
2021/03/04 08:30:11;;;;;;;0.85;0.85;;;-0.60;63.90;;;;;;5052841;28;20049;-65
2021/03/04 08:32:39;;;;;;;3.70;1.13;;;-0.60;63.10;;;;;;5047863;28;20021;-65
2021/03/04 08:35:25;;;;;;;1.25;1.10;;;-0.60;62.40;;;;;;5049717;28;20094;-65
2021/03/04 08:37:59;;;;;;;1.95;1.10;;;-0.50;61.50;;;;;;5042877;28;20024;-65
2021/03/04 08:40:25;;;;;;;1.48;1.00;;;-0.50;62.20;;;;;;5037328;28;20029;-68
2021/03/04 08:42:51;;;;;;;2.45;0.98;;;-0.60;60.90;;;;;;5048395;28;20029;-64
2021/03/04 08:45:28;;;;;;;1.00;0.80;;;-0.40;69.50;;;;;;5049975;28;20396;-64
2021/03/04 08:47:54;;;;;;;2.92;1.20;;;1.00;99.90;;;;;;5050678;28;20285;-65
2021/03/04 08:50:19;;;;;;;1.95;0.80;;;1.80;70.50;;;;;;5051432;28;20079;-69
2021/03/04 08:52:45;;;;;;;2.20;0.80;;;1.20;61.50;;;;;;5050742;28;20032;-68
2021/03/04 08:55:12;;;;;;;3.97;1.08;;;0.50;60.00;;;;;;5051420;28;20516;-70
2021/03/04 08:57:37;;;;;;;2.08;1.02;;;0.20;60.60;;;;;;5047151;28;20123;-69
2021/03/04 09:00:12;;;;;;;4.78;1.40;;;-0.10;59.40;;;;;;5052157;28;20053;-69
2021/03/04 09:02:38;;;;;;;2.55;1.05;;;-0.20;58.90;;;;;;5051943;28;20538;-69
2021/03/04 09:05:07;;;;;;;3.42;1.13;;;-0.20;58.60;;;;;;5052204;28;20021;-68
2021/03/04 09:07:44;;;;;;;1.40;0.93;;;-0.20;60.50;;;;;;5052430;28;20024;-68
2021/03/04 09:10:14;;;;;;;6.75;1.25;;;-0.20;59.50;;;;;;5051866;28;20041;-70
2021/03/04 09:12:44;;;;;;;;;;;-0.20;59.60;;;;;;5049301;28;20099;-70
2021/03/04 09:15:11;;;;;;;2.17;1.10;;;-0.20;58.60;;;;;;5051866;28;19913;-70
2021/03/04 09:17:41;;;;;;;1.05;0.90;;;-0.20;58.70;;;;;;5048919;28;20017;-70
2021/03/04 09:20:07;;;;;;;1.92;1.10;;;-0.10;59.60;;;;;;5045562;28;20051;-72
2021/03/04 09:22:35;;;;;;;0.98;0.98;;;-0.10;60.00;;;;;;5051790;28;20029;-70
2021/03/04 09:25:02;;;;;;;2.63;0.85;;;0.40;87.40;;;;;;5052038;28;20044;-70
2021/03/04 09:27:28;;;;;;;1.75;1.00;;;0.80;64.00;;;;;;5052082;28;20028;-70
2021/03/04 09:29:54;;;;;;;1.30;0.90;;;0.50;60.20;;;;;;5052151;28;20079;-71
2021/03/04 09:32:32;;;;;;;1.63;1.00;;;0.30;59.60;;;;;;5051861;28;20028;-70
2021/03/04 09:34:58;;;;;;;2.45;0.90;;;0.10;59.20;;;;;;5046417;28;20676;-70
2021/03/04 09:37:30;;;;;;;2.85;1.25;;;0.00;59.90;;;;;;5051970;28;20524;-70
2021/03/04 09:39:56;;;;;;;2.63;0.80;;;0.00;61.60;;;;;;5051653;28;20381;-72
2021/03/04 09:42:37;;;;;;;2.65;0.95;;;0.10;67.90;;;;;;5051448;28;20028;-69
2021/03/04 09:45:08;;;;;;;1.70;1.00;;;0.40;66.60;;;;;;5051810;28;20108;-68
2021/03/04 09:47:35;;;;;;;1.50;0.90;;;0.40;61.50;;;;;;5051744;28;20053;-68
2021/03/04 09:50:15;;;;;;;0.98;0.90;;;0.30;61.80;;;;;;5049912;28;20058;-68
2021/03/04 09:52:41;;;;;;;0.73;0.70;;;0.10;60.50;;;;;;5051398;28;20380;-68
2021/03/04 09:55:12;;;;;;;4.00;1.00;;;0.10;60.90;;;;;;5051751;28;20108;-68
2021/03/04 09:57:46;;;;;;;5.32;1.00;;;0.00;61.40;;;;;;5051023;28;20055;-68
2021/03/04 10:00:25;;;;;;;0.75;0.75;;;0.00;61.00;;;;;;5051484;28;20119;-68
2021/03/04 10:02:53;;;;;;;3.80;1.30;;;-0.10;60.30;;;;;;5051125;28;20107;-67
2021/03/04 10:05:23;;;;;;;2.17;1.30;;;-0.10;61.70;;;;;;5051477;28;20027;-67
2021/03/04 10:07:50;;;;;;;1.48;1.08;;;-0.20;61.40;;;;;;5048146;28;20382;-68
2021/03/04 10:10:21;;;;;;;4.35;1.05;;;-0.10;59.70;;;;;;5051389;28;20059;-67
2021/03/04 10:12:48;;;;;;;2.13;1.00;;;-0.10;60.30;;;;;;5050150;28;20550;-68
2021/03/04 10:15:43;;;;;;;3.25;1.00;;;0.00;61.10;;;;;;5050505;28;20502;-68
2021/03/04 10:18:10;;;;;;;1.85;0.90;;;-0.10;61.00;;;;;;5054996;28;20032;-68
2021/03/04 10:20:37;;;;;;;2.35;1.25;;;-0.10;59.90;;;;;;5046018;28;20032;-68
2021/03/04 10:23:04;;;;;;;2.17;1.00;;;-0.10;60.30;;;;;;5051007;28;20029;-68
2021/03/04 10:25:30;;;;;;;2.55;1.08;;;0.00;61.40;;;;;;5051355;28;20397;-68
2021/03/04 10:27:59;;;;;;;1.55;1.08;;;-0.10;61.90;;;;;;5051080;28;20411;-68
2021/03/04 10:30:26;;;;;;;3.20;0.90;;;0.00;61.60;;;;;;5050854;28;20524;-68
2021/03/04 10:32:53;;;;;;;2.67;1.02;;;0.00;61.40;;;;;;5049850;28;20435;-68
2021/03/04 10:35:20;;;;;;;3.20;0.90;;;0.10;61.00;;;;;;5051445;28;20013;-69
2021/03/04 10:37:46;;;;;;;1.67;0.90;;;0.20;61.40;;;;;;5050879;28;20491;-68
2021/03/04 10:40:14;;;;;;;1.27;0.90;;;0.30;60.20;;;;;;5050863;28;20021;-70
2021/03/04 10:42:40;;;;;;;1.02;0.98;;;0.30;59.60;;;;;;5038769;28;20572;-70
2021/03/04 10:45:12;;;;;;;0.75;0.70;;;0.30;57.90;;;;;;5042576;28;20032;-68
2021/03/04 10:47:39;;;;;;;2.72;0.90;;;0.30;57.90;;;;;;5047355;28;20021;-71
2021/03/04 10:50:07;;;;;;;3.05;0.95;;;0.30;58.10;;;;;;5050486;28;20037;-71
2021/03/04 10:52:33;;;;;;;1.70;1.42;;;0.30;58.90;;;;;;5046619;28;20075;-71
2021/03/04 10:54:59;;;;;;;1.85;0.85;;;0.30;58.40;;;;;;5047209;28;20435;-69
2021/03/04 10:57:25;;;;;;;2.50;1.05;;;0.30;58.80;;;;;;5048031;28;20024;-68
2021/03/04 10:59:50;;;;;;;1.33;0.98;;;0.30;57.90;;;;;;5049949;28;20032;-69
2021/03/04 11:02:16;;;;;;;2.85;0.90;;;0.30;57.60;;;;;;5040464;28;20193;-69
2021/03/04 11:04:42;;;;;;;2.30;0.90;;;0.30;57.90;;;;;;5049792;28;20052;-69
2021/03/04 11:07:08;;;;;;;2.35;1.13;;;0.30;57.80;;;;;;5051042;28;20033;-68
2021/03/04 11:09:34;;;;;;;1.40;0.82;;;0.30;58.30;;;;;;5042977;28;20029;-69
2021/03/04 11:12:00;;;;;;;2.20;1.10;;;0.30;58.10;;;;;;5050548;28;20048;-69
2021/03/04 11:14:26;;;;;;;2.95;1.30;;;0.30;58.70;;;;;;5050952;28;20036;-69
2021/03/04 11:16:52;;;;;;;2.55;0.80;;;0.40;58.70;;;;;;5050630;28;20104;-69
2021/03/04 11:19:18;;;;;;;0.93;0.80;;;0.50;57.60;;;;;;5050944;28;20063;-69
2021/03/04 11:21:45;;;;;;;2.28;0.98;;;0.50;56.50;;;;;;5051093;28;20017;-69
2021/03/04 11:24:12;;;;;;;3.10;1.10;;;0.50;56.00;;;;;;5052276;28;20036;-69
2021/03/04 11:26:39;;;;;;;2.08;1.00;;;0.40;56.60;;;;;;5054750;28;20025;-69
2021/03/04 11:29:06;;;;;;;0.80;0.80;;;0.40;57.00;;;;;;5054135;28;20037;-68
2021/03/04 11:31:33;;;;;;;1.52;0.60;;;0.40;56.20;;;;;;5054546;28;20543;-67
2021/03/04 11:34:00;;;;;;;3.13;0.95;;;0.30;56.80;;;;;;5051989;28;20366;-69
2021/03/04 11:36:27;;;;;;;3.42;0.93;;;0.40;61.70;;;;;;5054864;28;20017;-68
2021/03/04 11:38:53;;;;;;;1.83;0.80;;;0.70;61.00;;;;;;5052724;28;20059;-68
2021/03/04 11:41:19;;;;;;;1.05;0.90;;;0.70;56.80;;;;;;5054301;28;20048;-68
2021/03/04 11:43:44;;;;;;;2.10;0.93;;;0.50;55.40;;;;;;5054016;28;20099;-68
2021/03/04 11:46:12;;;;;;;0.70;0.70;;;0.40;56.50;;;;;;5054037;28;20031;-68
2021/03/04 11:48:38;;;;;;;9.77;1.23;;;0.30;55.00;;;;;;5054281;28;20114;-68
2021/03/04 11:51:04;;;;;;;1.70;0.93;;;0.30;54.40;;;;;;5054142;28;20473;-68
2021/03/04 11:53:29;;;;;;;2.65;0.90;;;0.30;55.80;;;;;;5048602;28;20110;-68
2021/03/04 11:55:55;;;;;;;1.70;0.70;;;0.30;54.80;;;;;;5053738;28;20165;-68
2021/03/04 11:58:21;;;;;;;0.80;0.80;;;0.30;55.60;;;;;;5053822;28;20017;-68
2021/03/04 12:00:46;;;;;;;3.30;0.90;;;0.20;55.70;;;;;;5052327;28;20029;-67
2021/03/04 12:03:13;;;;;;;1.45;0.80;;;0.20;55.80;;;;;;5053754;28;20035;-69
2021/03/04 12:05:38;;;;;;;1.33;0.90;;;0.20;57.00;;;;;;5053797;28;20057;-70
2021/03/04 12:08:04;;;;;;;4.20;1.20;;;0.20;56.90;;;;;;5053763;28;20059;-71
2021/03/04 12:10:30;;;;;;;2.65;0.82;;;0.20;56.80;;;;;;5045684;28;20102;-71
2021/03/04 12:12:56;;;;;;;1.38;0.80;;;0.40;64.10;;;;;;5050857;28;20045;-71
2021/03/04 12:15:22;;;;;;;0.80;0.70;;;0.60;57.50;;;;;;5053522;28;20112;-67
2021/03/04 12:17:47;;;;;;;1.17;0.90;;;0.60;56.50;;;;;;5053399;28;20017;-68
2021/03/04 12:20:14;;;;;;;1.70;0.80;;;0.60;57.40;;;;;;5053345;28;20058;-67
2021/03/04 12:22:39;;;;;;;2.30;0.90;;;0.60;57.00;;;;;;5053803;28;20040;-68
2021/03/04 12:25:07;;;;;;;2.47;0.80;;;0.70;56.20;;;;;;5053252;28;20025;-69
2021/03/04 12:27:33;;;;;;;2.88;1.00;;;0.90;62.40;;;;;;5052482;28;20054;-68
2021/03/04 12:29:59;;;;;;;1.15;0.80;;;1.00;56.80;;;;;;5053179;28;20033;-71
2021/03/04 12:32:26;;;;;;;0.82;0.70;;;0.90;54.30;;;;;;5040764;28;20384;-68
2021/03/04 12:34:52;;;;;;;0.75;0.70;;;0.80;53.70;;;;;;5049570;28;20041;-67
2021/03/04 12:37:18;;;;;;;5.68;0.85;;;0.60;54.70;;;;;;5049334;28;20476;-67
2021/03/04 12:39:44;;;;;;;4.93;0.75;;;0.60;55.90;;;;;;5051212;28;20120;-67
2021/03/04 12:42:11;;;;;;;0.70;0.70;;;0.60;54.90;;;;;;5052866;28;20037;-67
2021/03/04 12:44:36;;;;;;;1.23;0.85;;;0.70;56.10;;;;;;5052516;28;20017;-67
2021/03/04 12:47:03;;;;;;;0.80;0.80;;;0.60;55.40;;;;;;5052608;28;20032;-67
2021/03/04 12:49:28;;;;;;;1.90;1.00;;;0.60;55.40;;;;;;5052629;28;20032;-67
2021/03/04 12:51:54;;;;;;;26.92;1.95;;;0.60;55.30;;;;;;5052442;28;20091;-67
2021/03/04 12:54:20;;;;;;;9.95;0.90;;;0.60;54.50;;;;;;5052392;28;20039;-67
2021/03/04 12:56:45;;;;;;;1.63;0.82;;;0.60;54.30;;;;;;5052230;28;20025;-67
2021/03/04 12:59:11;;;;;;;2.03;0.80;;;0.60;54.40;;;;;;5052565;28;20035;-67
2021/03/04 13:01:38;;;;;;;1.13;0.80;;;0.50;55.70;;;;;;5045290;28;20052;-67
2021/03/04 13:04:04;;;;;;;0.70;0.70;;;0.50;55.80;;;;;;5051933;28;20028;-67
2021/03/04 13:06:31;;;;;;;1.40;0.70;;;0.40;55.40;;;;;;5051764;28;20583;-68
2021/03/04 13:08:59;;;;;;;3.75;0.82;;;0.40;54.80;;;;;;5052505;28;20033;-67
2021/03/04 13:11:26;;;;;;;1.38;0.75;;;0.30;55.20;;;;;;5051442;28;20045;-67
2021/03/04 13:13:51;;;;;;;1.98;1.00;;;0.30;55.40;;;;;;5051185;28;20108;-66
2021/03/04 13:16:17;;;;;;;2.38;0.80;;;0.30;55.30;;;;;;5052083;28;20112;-65
2021/03/04 13:18:43;;;;;;;0.70;0.70;;;0.20;55.90;;;;;;5051923;28;20128;-65
2021/03/04 13:21:09;;;;;;;1.27;0.80;;;0.40;61.60;;;;;;5052196;28;20029;-66
2021/03/04 13:23:34;;;;;;;0.80;0.80;;;1.30;68.10;;;;;;5051700;28;20013;-66
2021/03/04 13:26:01;;;;;;;1.42;0.70;;;1.20;58.40;;;;;;5051259;28;20031;-66
2021/03/04 13:28:26;;;;;;;0.82;0.70;;;0.90;56.50;;;;;;5050494;28;20037;-66
2021/03/04 13:30:52;;;;;;;1.20;0.63;;;0.70;56.10;;;;;;5051430;28;20040;-66
2021/03/04 13:33:18;;;;;;;1.52;0.88;;;0.60;56.20;;;;;;5051661;28;20025;-66
2021/03/04 13:35:44;;;;;;;1.77;0.70;;;0.50;55.70;;;;;;5050274;28;20044;-66
2021/03/04 13:38:09;;;;;;;2.28;0.88;;;0.50;55.80;;;;;;5050763;28;20489;-66
2021/03/04 13:40:35;;;;;;;1.02;0.90;;;0.40;55.80;;;;;;5051832;28;20036;-66
2021/03/04 13:43:01;;;;;;;1.20;0.77;;;0.50;55.60;;;;;;5051153;28;20036;-69
2021/03/04 13:45:27;;;;;;;2.90;1.13;;;0.50;55.80;;;;;;5047466;28;20024;-66
2021/03/04 13:47:53;;;;;;;1.27;1.15;;;0.50;55.20;;;;;;5050485;28;20052;-66
2021/03/04 13:50:18;;;;;;;2.80;0.93;;;0.60;56.00;;;;;;5051369;28;20082;-66
2021/03/04 13:52:44;;;;;;;1.90;0.98;;;0.60;55.20;;;;;;5041311;28;20504;-67
2021/03/04 13:55:10;;;;;;;1.02;0.80;;;2.30;97.50;;;;;;5051424;28;20035;-67
2021/03/04 13:57:36;;;;;;;1.38;0.95;;;2.60;61.10;;;;;;5052219;28;20431;-69
2021/03/04 14:00:02;;;;;;;1.83;1.00;;;2.10;55.80;;;;;;5051405;28;20025;-70
2021/03/04 14:02:28;;;;;;;1.27;1.10;;;1.60;53.90;;;;;;5051529;28;20059;-70
2021/03/04 14:04:53;;;;;;;0.80;0.80;;;1.30;54.90;;;;;;5043234;28;20065;-70
2021/03/04 14:07:19;;;;;;;0.70;0.60;;;1.10;55.20;;;;;;5046280;28;20032;-70
2021/03/04 14:09:45;;;;;;;3.22;0.88;;;1.00;54.00;;;;;;5049065;28;20099;-70
2021/03/04 14:12:10;;;;;;;1.00;0.80;;;0.90;55.50;;;;;;5046684;28;20077;-70
2021/03/04 14:14:37;;;;;;;0.80;0.80;;;0.90;55.80;;;;;;5045400;28;20025;-70
2021/03/04 14:17:03;;;;;;;0.80;0.80;;;0.90;55.50;;;;;;5046803;28;20474;-70
2021/03/04 14:19:29;;;;;;;1.10;0.90;;;0.80;54.90;;;;;;5048727;28;20049;-70
2021/03/04 14:21:54;;;;;;;0.90;0.80;;;1.00;57.50;;;;;;5048297;28;20048;-70
2021/03/04 14:24:20;;;;;;;1.05;0.90;;;1.00;55.00;;;;;;5046051;28;20025;-71
2021/03/04 14:26:46;;;;;;;0.70;0.70;;;1.00;55.40;;;;;;5040231;28;20017;-70
2021/03/04 14:29:12;;;;;;;1.35;0.70;;;1.00;56.10;;;;;;5044713;28;20052;-70
2021/03/04 14:31:37;;;;;;;1.58;0.80;;;1.00;56.20;;;;;;5048848;28;20068;-71
2021/03/04 14:34:03;;;;;;;0.68;0.60;;;0.90;55.10;;;;;;5049709;28;20044;-71
2021/03/04 14:36:29;;;;;;;1.75;1.00;;;0.90;55.60;;;;;;5040741;28;20037;-72
2021/03/04 14:38:55;;;;;;;0.95;0.80;;;0.80;55.60;;;;;;5048867;28;20043;-70
2021/03/04 14:41:20;;;;;;;0.80;0.80;;;0.80;54.50;;;;;;5046024;28;20055;-70
2021/03/04 14:43:46;;;;;;;1.23;0.77;;;0.80;55.30;;;;;;5041679;28;20075;-70
2021/03/04 14:46:12;;;;;;;2.63;0.88;;;0.70;54.60;;;;;;5047561;28;20156;-71
2021/03/04 14:48:38;;;;;;;3.85;0.88;;;0.70;54.20;;;;;;5047927;28;20045;-71
2021/03/04 14:51:04;;;;;;;6.55;1.00;;;0.70;54.20;;;;;;5047165;28;20101;-71
2021/03/04 14:53:30;;;;;;;2.20;0.73;;;0.70;54.30;;;;;;5048871;28;20022;-71
2021/03/04 14:55:56;;;;;;;2.30;0.93;;;0.60;55.30;;;;;;5049269;28;20143;-69
2021/03/04 14:58:22;;;;;;;2.05;0.70;;;0.60;55.70;;;;;;5049566;28;20044;-71
2021/03/04 15:00:47;;;;;;;1.55;0.82;;;0.60;55.80;;;;;;5054734;28;20419;-72
2021/03/04 15:03:13;;;;;;;2.58;1.00;;;0.50;56.10;;;;;;5055067;28;20029;-71
2021/03/04 15:05:39;;;;;;;1.02;0.85;;;0.50;56.30;;;;;;5054979;28;20082;-71
2021/03/04 15:08:05;;;;;;;1.00;0.85;;;0.50;57.00;;;;;;5054556;28;20021;-70
2021/03/04 15:10:31;;;;;;;2.10;0.95;;;0.50;57.10;;;;;;5054743;28;20515;-70
2021/03/04 15:12:57;;;;;;;2.85;0.90;;;0.50;56.30;;;;;;5054497;28;20049;-71
2021/03/04 15:15:23;;;;;;;2.95;0.82;;;0.40;56.20;;;;;;5056887;28;20472;-73
2021/03/04 15:17:49;;;;;;;1.13;0.70;;;0.40;56.10;;;;;;5054846;28;20048;-70
2021/03/04 15:20:15;;;;;;;0.63;0.63;;;0.40;55.50;;;;;;5054651;28;20051;-69
2021/03/04 15:22:41;;;;;;;1.20;0.73;;;0.30;54.80;;;;;;5055101;28;20074;-70
2021/03/04 15:25:07;;;;;;;0.82;0.82;;;0.30;55.80;;;;;;5054755;28;20021;-70
2021/03/04 15:27:33;;;;;;;2.83;0.82;;;0.30;55.40;;;;;;5054590;28;20021;-70
2021/03/04 15:29:59;;;;;;;2.20;0.80;;;0.30;54.50;;;;;;5054508;28;20036;-70
2021/03/04 15:32:25;;;;;;;0.80;0.80;;;0.30;54.90;;;;;;5047967;28;20021;-70
2021/03/04 15:34:51;;;;;;;3.53;1.65;;;0.30;55.90;;;;;;5047344;28;20035;-71
2021/03/04 15:37:17;;;;;;;4.95;0.80;;;0.30;56.40;;;;;;5054324;28;20040;-71
2021/03/04 15:39:42;;;;;;;1.90;0.93;;;0.30;56.20;;;;;;5053247;28;20029;-71
2021/03/04 15:42:09;;;;;;;5.50;0.70;;;0.30;56.60;;;;;;5054588;28;20449;-70
2021/03/04 15:44:35;;;;;;;1.20;0.77;;;0.30;56.40;;;;;;5054305;28;20017;-70
2021/03/04 15:47:01;;;;;;;2.97;1.08;;;0.20;56.70;;;;;;5054278;28;20155;-68
2021/03/04 15:49:28;;;;;;;7.20;1.00;;;0.20;57.40;;;;;;5053925;28;20029;-70
2021/03/04 15:51:54;;;;;;;2.45;0.80;;;0.20;57.80;;;;;;5054053;28;20119;-70
2021/03/04 15:54:20;;;;;;;1.45;0.88;;;0.20;57.10;;;;;;5054239;28;20111;-70
2021/03/04 15:56:45;;;;;;;1.60;0.68;;;0.20;57.40;;;;;;5054164;28;20029;-71
2021/03/04 15:59:11;;;;;;;1.45;1.10;;;0.20;56.80;;;;;;5042250;28;20468;-70
2021/03/04 16:01:37;;;;;;;3.72;1.60;;;0.20;57.50;;;;;;5053456;28;20021;-72
2021/03/04 16:04:04;;;;;;;1.45;1.15;;;0.30;57.20;;;;;;5053676;28;20029;-71
2021/03/04 16:06:30;;;;;;;1.70;1.00;;;0.30;58.00;;;;;;5054232;28;20044;-71
2021/03/04 16:08:56;;;;;;;1.70;1.13;;;0.30;58.60;;;;;;5053692;28;20033;-71
2021/03/04 16:11:21;;;;;;;6.97;4.18;;;0.40;60.00;;;;;;5049497;28;20443;-69
2021/03/04 16:13:47;;;;;;;5.97;1.75;;;0.40;60.70;;;;;;5048997;28;20485;-69
2021/03/04 16:16:13;;;;;;;4.93;1.75;;;0.40;59.90;;;;;;5052551;28;20053;-68
2021/03/04 16:18:38;;;;;;;3.13;1.30;;;0.30;59.50;;;;;;5053186;28;20094;-69
2021/03/04 16:21:04;;;;;;;2.55;0.90;;;0.20;59.10;;;;;;5053528;28;20021;-69
2021/03/04 16:23:30;;;;;;;2.20;1.05;;;0.10;58.90;;;;;;5053000;28;20024;-69
2021/03/04 16:25:56;;;;;;;3.13;0.90;;;0.10;59.40;;;;;;5053203;28;20025;-69
2021/03/04 16:28:22;;;;;;;3.70;1.20;;;0.10;59.60;;;;;;5053441;28;20091;-69
2021/03/04 16:30:48;;;;;;;3.72;0.80;;;0.10;60.40;;;;;;5053415;28;20053;-69
2021/03/04 16:33:14;;;;;;;3.38;1.10;;;0.10;61.00;;;;;;5053132;28;20063;-69
2021/03/04 16:35:39;;;;;;;1.75;0.93;;;0.00;60.90;;;;;;5052969;28;20064;-69
2021/03/04 16:38:09;;;;;;;11.35;1.77;;;0.00;61.10;;;;;;5052980;28;20029;-69
2021/03/04 16:40:36;;;;;;;2.80;1.10;;;-0.10;59.80;;;;;;5052916;28;20049;-69
2021/03/04 16:43:02;;;;;;;1.17;0.90;;;0.00;59.80;;;;;;5052890;28;20056;-69
2021/03/04 16:45:28;;;;;;;17.50;2.67;;;0.00;60.80;;;;;;5052838;28;20752;-69
2021/03/04 16:47:54;;;;;;;12.25;3.33;;;0.00;60.80;;;;;;5052100;28;20056;-69
2021/03/04 16:50:20;;;;;;;2.17;1.35;;;0.00;60.00;;;;;;5052434;28;20488;-70
2021/03/04 16:52:46;;;;;;;1.25;0.93;;;0.00;59.70;;;;;;5050955;28;20484;-72
2021/03/04 16:55:12;;;;;;;1.10;1.00;;;-0.10;60.40;;;;;;5052608;28;20029;-71
2021/03/04 16:57:38;;;;;;;2.25;0.80;;;0.00;62.50;;;;;;5052680;28;20017;-71
2021/03/04 17:00:08;;;;;;;2.72;1.60;;;0.30;72.70;;;;;;5052526;28;20024;-71
2021/03/04 17:02:34;;;;;;;3.95;1.58;;;0.30;62.90;;;;;;5046063;28;20025;-71
2021/03/04 17:05:01;;;;;;;3.22;1.30;;;0.20;61.60;;;;;;5052231;28;20033;-71